Time;durP1;ratioP1;P1;durP2;ratioP2;P2;SDS_P1;SDS_P2;PMS_P1;PMS_P2;Temp;Humidity;BMP_temperature;BMP_pressure;BME280_temperature;BME280_humidity;BME280_pressure;Samples;Min_cycle;Max_cycle;Signal;HPM_P1;HPM_P2
2023/06/27 00:00:41;;;;;;;7.97;7.17;;;;;;;15.47;100.00;101501.19;5010973;28;20489;-42
2023/06/27 00:03:11;;;;;;;7.43;6.87;;;;;;;15.45;100.00;101493.31;5011124;28;20546;-44
2023/06/27 00:05:41;;;;;;;8.43;7.70;;;;;;;15.40;100.00;101497.66;5011220;28;20440;-43
2023/06/27 00:08:09;;;;;;;8.23;7.47;;;;;;;15.39;100.00;101501.38;5011060;28;20477;-41
2023/06/27 00:10:36;;;;;;;12.20;7.50;;;;;;;15.34;100.00;101502.00;5010639;28;20507;-41
2023/06/27 00:13:05;;;;;;;11.20;7.93;;;;;;;15.34;100.00;101507.38;5011107;28;20436;-41
2023/06/27 00:15:34;;;;;;;9.60;6.83;;;;;;;15.30;100.00;101508.00;5011263;28;20436;-41
2023/06/27 00:18:07;;;;;;;8.40;7.63;;;;;;;15.24;100.00;101501.59;5011194;28;20451;-42
2023/06/27 00:20:35;;;;;;;9.30;6.83;;;;;;;15.23;100.00;101509.88;5009933;28;21047;-42
2023/06/27 00:23:16;;;;;;;11.60;7.40;;;;;;;15.21;100.00;101512.75;5011103;28;20433;-43
2023/06/27 00:25:44;;;;;;;9.83;8.00;;;;;;;15.20;100.00;101508.41;5011044;28;20443;-40
2023/06/27 00:28:13;;;;;;;10.87;6.87;;;;;;;15.19;100.00;101516.69;5011029;28;20524;-43
2023/06/27 00:30:42;;;;;;;8.77;7.60;;;;;;;15.18;100.00;101512.34;5010344;28;20477;-41
2023/06/27 00:33:10;;;;;;;9.97;7.20;;;;;;;15.14;100.00;101511.94;5010640;28;20437;-42
2023/06/27 00:35:39;;;;;;;7.70;7.07;;;;;;;15.10;100.00;101517.94;5011130;28;20472;-46
2023/06/27 00:38:07;;;;;;;8.70;6.50;;;;;;;15.06;100.00;101517.53;5010354;28;20792;-44
2023/06/27 00:40:35;;;;;;;7.50;6.60;;;;;;;15.03;100.00;101515.25;5010340;28;20527;-40
2023/06/27 00:43:03;;;;;;;7.23;6.60;;;;;;;15.02;100.00;101510.09;5010651;28;20524;-42
2023/06/27 00:45:30;;;;;;;11.73;7.03;;;;;;;14.98;100.00;101512.38;5010737;28;20788;-41
2023/06/27 00:48:00;;;;;;;9.97;7.10;;;;;;;14.96;100.00;101515.25;5010797;28;20477;-44
2023/06/27 00:50:28;;;;;;;11.20;6.87;;;;;;;14.93;100.00;101518.34;5010432;28;20479;-43
2023/06/27 00:52:57;;;;;;;8.70;6.90;;;;;;;14.94;100.00;101509.25;5010876;28;20846;-43
2023/06/27 00:55:25;;;;;;;11.70;7.90;;;;;;;14.90;100.00;101508.00;5011091;28;20465;-41
2023/06/27 00:57:53;;;;;;;8.97;8.20;;;;;;;14.90;100.00;101502.66;5010912;28;20429;-41
2023/06/27 01:00:21;;;;;;;8.13;7.33;;;;;;;14.88;100.00;101503.88;5010271;28;20895;-41
2023/06/27 01:02:49;;;;;;;9.63;7.13;;;;;;;14.85;100.00;101502.44;5010388;28;20433;-41
2023/06/27 01:05:19;;;;;;;8.43;7.63;;;;;;;14.84;100.00;101514.22;5010518;28;20444;-41
2023/06/27 01:07:53;;;;;;;10.17;7.30;;;;;;;14.81;100.00;101506.56;5011247;28;20515;-40
2023/06/27 01:10:27;;;;;;;11.17;8.00;;;;;;;14.78;100.00;101508.84;5013679;28;20529;-42
2023/06/27 01:13:03;;;;;;;13.10;7.73;;;;;;;14.76;100.00;101511.72;5014009;28;20438;-41
2023/06/27 01:15:32;;;;;;;7.63;6.97;;;;;;;14.76;100.00;101514.41;5014172;28;20834;-42
2023/06/27 01:18:00;;;;;;;8.53;7.30;;;;;;;14.76;100.00;101521.63;5014262;28;21154;-41
2023/06/27 01:20:32;;;;;;;8.83;7.93;;;;;;;14.75;100.00;101520.00;5013741;28;20472;-42
2023/06/27 01:23:08;;;;;;;11.63;7.53;;;;;;;14.75;100.00;101520.00;5013956;28;20467;-42
2023/06/27 01:25:38;;;;;;;11.03;7.80;;;;;;;14.77;100.00;101515.25;5014040;28;20440;-43
2023/06/27 01:28:07;;;;;;;12.23;8.10;;;;;;;14.80;100.00;101514.84;5014218;28;20854;-43
2023/06/27 01:30:35;;;;;;;12.83;7.50;;;;;;;14.81;100.00;101520.00;5014566;28;21055;-44
2023/06/27 01:33:06;;;;;;;8.60;7.70;;;;;;;14.85;100.00;101517.72;5020117;28;20429;-42
2023/06/27 01:35:44;;;;;;;7.63;7.10;;;;;;;14.90;100.00;101509.91;5019702;28;20441;-41
2023/06/27 01:38:18;;;;;;;9.33;7.70;;;;;;;14.91;100.00;101515.03;5020091;28;20467;-41
2023/06/27 01:40:50;;;;;;;11.40;7.83;;;;;;;14.95;100.00;101502.03;5019521;28;21120;-43
2023/06/27 01:43:20;;;;;;;8.17;7.03;;;;;;;15.00;100.00;101507.59;5019821;28;20441;-45
2023/06/27 01:45:49;;;;;;;9.83;7.10;;;;;;;14.97;100.00;101508.03;5019429;28;20437;-44
2023/06/27 01:48:18;;;;;;;14.03;7.77;;;;;;;14.94;100.00;101505.75;5019988;28;20494;-41
2023/06/27 01:50:45;;;;;;;10.17;7.67;;;;;;;14.92;100.00;101505.97;5019499;28;20527;-40
2023/06/27 01:53:13;;;;;;;11.30;8.23;;;;;;;14.90;100.00;101502.66;5019901;28;20437;-45
2023/06/27 01:55:41;;;;;;;9.00;8.00;;;;;;;14.89;100.00;101503.69;5019972;28;20437;-40
2023/06/27 01:58:10;;;;;;;9.20;8.33;;;;;;;14.88;100.00;101509.25;5020131;28;20430;-39
2023/06/27 02:00:38;;;;;;;11.90;7.50;;;;;;;14.89;100.00;101501.00;5019139;28;20831;-42
2023/06/27 02:03:05;;;;;;;12.10;8.03;;;;;;;14.87;100.00;101495.00;5019831;28;20437;-41
2023/06/27 02:05:33;;;;;;;13.70;9.63;;;;;;;14.84;100.00;101503.47;5019410;28;20487;-42
2023/06/27 02:08:01;;;;;;;18.87;10.30;;;;;;;14.79;100.00;101499.75;5019602;28;20443;-42
2023/06/27 02:10:29;;;;;;;15.37;11.53;;;;;;;14.78;100.00;101495.44;5019036;28;20457;-39
2023/06/27 02:12:57;;;;;;;11.97;9.43;;;;;;;14.75;100.00;101503.91;5019748;28;20439;-45
2023/06/27 02:15:26;;;;;;;13.63;9.80;;;;;;;14.76;100.00;101502.84;5019695;28;21330;-41
2023/06/27 02:17:53;;;;;;;11.03;9.83;;;;;;;14.72;100.00;101490.88;5019222;28;20441;-41
2023/06/27 02:20:21;;;;;;;14.87;10.03;;;;;;;14.72;100.00;101498.94;5018788;28;20461;-40
2023/06/27 02:22:49;;;;;;;12.93;11.00;;;;;;;14.72;100.00;101496.25;5019214;28;20544;-44
2023/06/27 02:25:17;;;;;;;13.90;9.13;;;;;;;14.74;100.00;101492.31;5019154;28;20476;-41
2023/06/27 02:27:45;;;;;;;16.40;10.20;;;;;;;14.74;100.00;101500.38;5019042;28;20776;-43
2023/06/27 02:30:13;;;;;;;10.50;9.40;;;;;;;14.73;100.00;101500.56;5019266;28;20465;-43
2023/06/27 02:32:42;;;;;;;11.40;9.53;;;;;;;14.72;100.00;101491.72;5019236;28;20437;-40
2023/06/27 02:35:10;;;;;;;9.23;8.37;;;;;;;14.70;100.00;101493.75;5019999;28;20983;-44
2023/06/27 02:37:38;;;;;;;11.50;9.60;;;;;;;14.71;100.00;101487.38;5019478;28;20437;-44
2023/06/27 02:40:06;;;;;;;9.37;8.47;;;;;;;14.71;100.00;101492.75;5018271;28;20844;-41
2023/06/27 02:42:34;;;;;;;10.00;8.13;;;;;;;14.70;100.00;101495.59;5019136;28;20433;-43
2023/06/27 02:45:02;;;;;;;12.70;8.73;;;;;;;14.67;100.00;101482.59;5019166;28;20467;-40
2023/06/27 02:47:30;;;;;;;10.80;8.80;;;;;;;14.68;100.00;101478.88;5019243;28;20503;-42
2023/06/27 02:49:59;;;;;;;16.80;8.60;;;;;;;14.66;100.00;101484.47;5018650;28;20469;-40
2023/06/27 02:52:27;;;;;;;8.30;7.80;;;;;;;14.67;100.00;101478.06;5020064;28;20429;-45
2023/06/27 02:54:54;;;;;;;9.33;8.43;;;;;;;14.70;100.00;101477.66;5019263;28;20448;-41
2023/06/27 02:57:22;;;;;;;9.73;8.10;;;;;;;14.76;100.00;101476.00;5018947;28;20989;-40
2023/06/27 02:59:50;;;;;;;10.47;8.53;;;;;;;14.84;100.00;101478.50;5017905;28;20473;-47
2023/06/27 03:02:18;;;;;;;19.53;8.97;;;;;;;14.93;100.00;101475.38;5019061;28;20429;-41
2023/06/27 03:04:47;;;;;;;9.93;8.30;;;;;;;15.00;100.00;101478.06;5019544;28;20459;-43
2023/06/27 03:07:17;;;;;;;13.47;7.63;;;;;;;15.07;100.00;101475.38;5019074;28;20441;-42
2023/06/27 03:09:44;;;;;;;10.07;8.13;;;;;;;15.13;100.00;101474.53;5019025;28;20476;-42
2023/06/27 03:12:13;;;;;;;10.30;7.80;;;;;;;15.15;100.00;101465.25;5017764;28;20440;-43
2023/06/27 03:14:40;;;;;;;10.73;7.97;;;;;;;15.19;100.00;101469.16;5018512;28;20433;-41
2023/06/27 03:17:08;;;;;;;8.30;7.47;;;;;;;15.24;100.00;101466.66;5018133;28;20429;-41
2023/06/27 03:19:36;;;;;;;10.10;8.10;;;;;;;15.36;100.00;101472.22;5018362;28;20488;-42
2023/06/27 03:22:11;;;;;;;10.30;7.40;;;;;;;15.46;100.00;101472.63;5018081;28;20475;-43
2023/06/27 03:24:41;;;;;;;8.30;7.10;;;;;;;15.53;100.00;101468.06;5018233;28;20437;-39
2023/06/27 03:27:08;;;;;;;9.87;7.53;;;;;;;15.67;100.00;101469.69;5019370;28;20441;-41
2023/06/27 03:29:36;;;;;;;7.93;7.23;;;;;;;16.08;100.00;101472.00;5017263;28;20469;-44
2023/06/27 03:32:04;;;;;;;7.73;7.23;;;;;;;16.68;100.00;101464.41;5018389;28;20433;-43
2023/06/27 03:34:32;;;;;;;8.10;7.17;;;;;;;17.17;100.00;101469.78;5018462;28;20426;-40
2023/06/27 03:37:00;;;;;;;9.40;7.70;;;;;;;17.25;100.00;101463.28;5016823;28;20420;-42
2023/06/27 03:39:28;;;;;;;8.83;7.03;;;;;;;17.20;100.00;101465.81;5017731;28;20461;-45
2023/06/27 03:41:58;;;;;;;8.60;6.93;;;;;;;17.14;100.00;101468.34;5016993;28;20440;-41
2023/06/27 03:44:28;;;;;;;7.43;6.93;;;;;;;17.06;100.00;101471.31;5016617;28;20850;-43
2023/06/27 03:46:55;;;;;;;8.13;7.33;;;;;;;17.07;100.00;101474.84;5017661;28;20495;-44
2023/06/27 03:49:23;;;;;;;10.70;7.20;;;;;;;17.04;100.00;101475.28;5017312;28;20506;-41
2023/06/27 03:51:51;;;;;;;9.00;6.60;;;;;;;16.99;100.00;101475.94;5016477;28;20455;-41
2023/06/27 03:54:19;;;;;;;7.90;7.30;;;;;;;17.02;100.00;101472.00;5017704;28;20436;-45
2023/06/27 03:56:47;;;;;;;8.60;6.70;;;;;;;17.08;100.00;101476.50;5017885;28;20429;-45
2023/06/27 03:59:16;;;;;;;8.20;6.17;;;;;;;17.11;100.00;101470.66;5017225;28;20457;-47
2023/06/27 04:01:45;;;;;;;8.10;6.60;;;;;;;17.19;100.00;101475.78;5016845;28;20436;-42
2023/06/27 04:04:13;;;;;;;10.27;6.63;;;;;;;17.26;100.00;101473.84;5017078;28;20437;-43
2023/06/27 04:06:42;;;;;;;8.40;7.00;;;;;;;17.22;100.00;101472.63;5017441;28;20521;-42
2023/06/27 04:09:09;;;;;;;8.67;7.93;;;;;;;17.27;100.00;101470.09;5017182;28;20878;-44
2023/06/27 04:11:37;;;;;;;8.67;6.70;;;;;;;17.36;100.00;101468.75;5017248;28;20848;-43
2023/06/27 04:14:05;;;;;;;7.47;6.87;;;;;;;17.38;100.00;101472.03;5017235;28;20440;-44
2023/06/27 04:16:34;;;;;;;11.63;6.40;;;;;;;17.47;100.00;101475.28;5016987;28;20441;-43
2023/06/27 04:19:02;;;;;;;9.23;7.27;;;;;;;17.62;100.00;101471.19;5016522;28;20465;-42
2023/06/27 04:21:29;;;;;;;13.43;7.77;;;;;;;17.66;100.00;101471.56;5017156;28;20429;-41
2023/06/27 04:23:59;;;;;;;10.80;7.57;;;;;;;17.75;100.00;101470.22;5018045;28;20444;-44
2023/06/27 04:26:27;;;;;;;12.60;7.23;;;;;;;17.89;100.00;101474.38;5016794;28;20433;-47
2023/06/27 04:28:55;;;;;;;8.40;6.70;;;;;;;18.07;100.00;101466.25;5015826;28;20527;-42
2023/06/27 04:31:22;;;;;;;8.20;7.07;;;;;;;18.52;100.00;101468.53;5016293;28;20492;-43
2023/06/27 04:33:55;;;;;;;10.30;6.73;;;;;;;19.51;100.00;101471.22;5017009;28;20436;-45
2023/06/27 04:36:25;;;;;;;9.67;7.00;;;;;;;20.63;100.00;101453.41;5017413;28;20431;-45
2023/06/27 04:38:53;;;;;;;6.50;6.00;;;;;;;21.60;100.00;101455.66;5016351;28;20468;-44
2023/06/27 04:41:21;;;;;;;6.10;5.60;;;;;;;22.36;100.00;101454.66;5016004;28;20436;-43
2023/06/27 04:43:48;;;;;;;9.60;6.17;;;;;;;23.35;100.00;101452.19;5018718;28;20939;-43
2023/06/27 04:46:16;;;;;;;6.17;5.43;;;;;;;24.07;90.00;101442.13;5020376;28;20490;-42
2023/06/27 04:48:44;;;;;;;7.03;6.33;;;;;;;24.95;86.14;101445.53;5019942;28;20841;-44
2023/06/27 04:51:13;;;;;;;6.70;5.90;;;;;;;25.62;91.96;101441.56;5019923;28;20498;-43
2023/06/27 04:53:41;;;;;;;6.00;5.50;;;;;;;26.23;74.17;101442.06;5020440;28;20473;-42
2023/06/27 04:56:09;;;;;;;5.20;4.77;;;;;;;26.69;67.96;101443.34;5020800;28;20969;-45
2023/06/27 04:58:36;;;;;;;6.30;4.60;;;;;;;26.95;67.98;101443.97;5020150;28;20432;-49
2023/06/27 05:01:04;;;;;;;5.90;4.63;;;;;;;27.48;67.96;101462.03;5019978;28;20444;-48
2023/06/27 05:03:32;;;;;;;4.73;4.33;;;;;;;27.79;66.25;101448.78;5019447;28;20938;-43
2023/06/27 05:06:00;;;;;;;4.97;4.57;;;;;;;28.00;64.67;101441.91;5019146;28;20436;-47
2023/06/27 05:08:29;;;;;;;5.90;5.37;;;;;;;28.51;54.02;101446.66;5018593;28;20778;-44
2023/06/27 05:10:56;;;;;;;6.23;4.60;;;;;;;28.84;58.58;101448.31;5018877;28;20476;-49
2023/06/27 05:13:24;;;;;;;6.23;3.80;;;;;;;29.17;49.55;101445.50;5019468;28;20432;-42
2023/06/27 05:15:52;;;;;;;6.80;4.33;;;;;;;29.03;52.49;101443.56;5019150;28;20221;-49
2023/06/27 05:18:23;;;;;;;4.20;3.57;;;;;;;29.43;50.79;101441.19;5019449;28;20229;-42
2023/06/27 05:20:51;;;;;;;6.97;4.03;;;;;;;29.52;52.18;101450.34;5018963;28;20221;-47
2023/06/27 05:23:20;;;;;;;7.23;4.17;;;;;;;29.85;47.48;101448.28;5018985;28;20252;-43
2023/06/27 05:25:50;;;;;;;5.43;3.67;;;;;;;30.07;50.11;101446.44;5019134;28;20201;-44
2023/06/27 05:28:18;;;;;;;8.10;4.33;;;;;;;30.18;44.95;101445.06;5019793;28;20193;-47
2023/06/27 05:30:46;;;;;;;5.80;4.00;;;;;;;30.47;48.16;101441.09;5018102;28;20236;-43
2023/06/27 05:33:14;;;;;;;6.53;4.03;;;;;;;30.55;45.36;101434.84;5019607;28;20198;-41
2023/06/27 05:35:42;;;;;;;4.33;3.97;;;;;;;30.87;49.13;101436.50;5020292;28;20652;-45
2023/06/27 05:38:10;;;;;;;4.53;4.13;;;;;;;31.27;43.90;101435.44;5020278;28;20244;-44
2023/06/27 05:40:38;;;;;;;5.63;3.80;;;;;;;31.30;45.82;101434.81;5019754;28;20243;-42
2023/06/27 05:43:08;;;;;;;7.07;4.78;;;;;;;31.00;42.65;101439.22;5020122;28;20248;-47
2023/06/27 05:45:36;;;;;;;5.47;4.20;;;;;;;31.01;44.33;101435.31;5019818;28;20268;-47
2023/06/27 05:48:05;;;;;;;8.27;4.78;;;;;;;30.82;44.43;101436.66;5020142;28;20201;-42
2023/06/27 05:50:33;;;;;;;8.10;4.23;;;;;;;30.50;45.01;101432.22;5019769;28;20235;-43
2023/06/27 05:53:01;;;;;;;7.35;4.28;;;;;;;30.65;43.12;101435.41;5019879;28;20198;-43
2023/06/27 05:55:30;;;;;;;7.10;4.18;;;;;;;29.96;45.65;101444.19;5018282;28;20288;-46
2023/06/27 05:57:58;;;;;;;6.75;4.05;;;;;;;30.06;45.68;101430.22;5019941;28;20566;-42
2023/06/27 06:00:27;;;;;;;6.65;4.50;;;;;;;30.52;45.37;101430.78;5019640;28;20225;-43
2023/06/27 06:02:55;;;;;;;5.70;4.10;;;;;;;30.70;42.27;101428.97;5019703;28;20247;-42
2023/06/27 06:05:23;;;;;;;6.40;4.00;;;;;;;30.29;42.86;101429.13;5019823;28;20194;-42
2023/06/27 06:07:51;;;;;;;8.80;4.00;;;;;;;30.05;44.45;101432.16;5019557;28;20706;-42
2023/06/27 06:10:21;;;;;;;6.85;4.25;;;;;;;30.04;45.43;101433.28;5018848;28;20389;-41
2023/06/27 06:12:49;;;;;;;5.22;4.07;;;;;;;30.08;44.48;101428.78;5019054;28;20206;-42
2023/06/27 06:15:17;;;;;;;6.20;4.18;;;;;;;29.59;44.87;101418.59;5019417;28;20197;-47
2023/06/27 06:17:47;;;;;;;4.60;3.97;;;;;;;29.67;43.41;101424.47;5019636;28;20207;-42
2023/06/27 06:20:15;;;;;;;5.95;4.38;;;;;;;27.93;48.18;101432.41;5019293;28;20230;-42
2023/06/27 06:22:42;;;;;;;8.93;4.30;;;;;;;26.71;50.43;101429.38;5018724;28;20255;-42
2023/06/27 06:25:10;;;;;;;7.87;4.20;;;;;;;26.03;51.13;101426.59;4999570;28;20572;-47
2023/06/27 06:27:38;;;;;;;5.60;3.80;;;;;;;24.79;53.85;101436.50;4999017;28;20202;-42
2023/06/27 06:30:08;;;;;;;7.40;4.70;;;;;;;24.13;57.66;101432.91;4999012;28;20465;-41
2023/06/27 06:32:35;;;;;;;6.87;3.57;;;;;;;23.62;60.31;101442.78;4999168;28;20513;-42
2023/06/27 06:35:06;;;;;;;3.87;3.57;;;;;;;23.49;62.07;101435.13;4999725;28;20447;-42
2023/06/27 06:37:34;;;;;;;6.80;3.90;;;;;;;24.43;58.11;101434.06;4999739;28;20429;-44
2023/06/27 06:40:02;;;;;;;3.70;3.40;;;;;;;25.58;58.14;101426.81;4998200;28;20469;-45
2023/06/27 06:42:30;;;;;;;4.20;3.90;;;;;;;26.47;55.21;101431.22;4998296;28;20923;-45
2023/06/27 06:44:58;;;;;;;4.17;3.83;;;;;;;26.84;52.31;101423.28;4999147;28;20931;-42
2023/06/27 06:47:26;;;;;;;4.40;4.00;;;;;;;27.08;55.49;101434.25;4998970;28;20675;-42
2023/06/27 06:49:54;;;;;;;4.63;3.93;;;;;;;26.93;50.25;101422.38;4999101;28;20835;-42
2023/06/27 06:52:23;;;;;;;4.00;3.60;;;;;;;26.40;53.38;101415.94;4998703;28;20218;-45
2023/06/27 06:54:51;;;;;;;4.30;3.90;;;;;;;27.24;51.90;101428.31;4999270;28;20441;-42
2023/06/27 06:57:19;;;;;;;4.07;3.70;;;;;;;27.34;51.39;101417.25;4999237;28;20939;-44
2023/06/27 06:59:47;;;;;;;5.30;3.63;;;;;;;27.75;50.28;101423.06;4998550;28;20461;-47
2023/06/27 07:02:15;;;;;;;6.30;4.00;;;;;;;28.09;50.76;101413.84;4998570;28;20487;-44
2023/06/27 07:04:43;;;;;;;4.07;3.70;;;;;;;27.76;50.73;101424.69;4997653;28;20246;-42
2023/06/27 07:07:11;;;;;;;5.87;3.73;;;;;;;28.02;48.62;101419.66;4997222;28;20198;-45
2023/06/27 07:09:40;;;;;;;4.93;3.60;;;;;;;26.47;53.20;101423.00;4996904;28;20230;-42
2023/06/27 07:12:08;;;;;;;4.70;3.73;;;;;;;26.54;52.77;101418.03;4997805;28;20219;-46
2023/06/27 07:14:36;;;;;;;4.60;4.13;;;;;;;27.05;52.51;101415.66;4998169;28;20198;-43
2023/06/27 07:17:04;;;;;;;5.97;4.10;;;;;;;27.31;53.06;101417.00;4997861;28;20201;-42
2023/06/27 07:19:32;;;;;;;4.90;3.87;;;;;;;27.13;49.47;101413.13;4997961;28;20253;-43
2023/06/27 07:22:00;;;;;;;9.40;3.90;;;;;;;27.13;49.70;101417.75;5014373;28;20429;-42
2023/06/27 07:24:27;;;;;;;5.40;4.20;;;;;;;26.78;52.67;101416.19;5018268;28;20202;-41
2023/06/27 07:26:57;;;;;;;4.87;4.43;;;;;;;27.00;49.93;101407.53;5017650;28;20486;-44
2023/06/27 07:29:24;;;;;;;4.17;3.80;;;;;;;25.76;53.76;101418.81;5017451;28;20236;-42
2023/06/27 07:31:52;;;;;;;7.23;3.67;;;;;;;25.19;55.39;101416.53;5017170;28;20221;-46
2023/06/27 07:34:20;;;;;;;5.57;3.80;;;;;;;25.83;55.03;101404.84;5018026;28;20205;-44
2023/06/27 07:36:48;;;;;;;3.83;3.33;;;;;;;25.11;54.36;101416.28;5017289;28;20432;-43
2023/06/27 07:39:16;;;;;;;3.67;3.37;;;;;;;23.82;59.21;101416.72;5017093;28;20992;-42
2023/06/27 07:41:43;;;;;;;10.10;3.97;;;;;;;24.78;59.41;101425.88;5016982;28;20854;-42
2023/06/27 07:44:13;;;;;;;3.93;3.53;;;;;;;24.50;57.63;101412.78;5017285;28;20447;-46
2023/06/27 07:46:40;;;;;;;11.50;4.70;;;;;;;25.26;56.93;101408.06;5017608;28;20420;-47
2023/06/27 07:49:09;;;;;;;4.70;3.70;;;;;;;25.44;55.42;101409.38;5016465;28;20476;-45
2023/06/27 07:51:36;;;;;;;6.87;3.70;;;;;;;25.23;54.95;101416.81;5016296;28;20986;-45
2023/06/27 07:54:04;;;;;;;4.10;3.47;;;;;;;25.48;56.35;101416.75;5017204;28;20537;-42
2023/06/27 07:56:32;;;;;;;9.90;3.40;;;;;;;25.68;53.89;101415.84;5017107;28;20478;-41
2023/06/27 07:59:00;;;;;;;7.47;4.00;;;;;;;26.41;52.53;101414.03;5016063;28;20476;-47
2023/06/27 08:01:29;;;;;;;6.13;3.20;;;;;;;26.08;50.73;101412.88;5016651;28;20482;-44
2023/06/27 08:03:57;;;;;;;4.40;3.37;;;;;;;26.28;50.81;101401.81;5016167;28;20440;-47
2023/06/27 08:06:25;;;;;;;9.20;3.70;;;;;;;26.33;51.57;101410.00;5016933;28;20431;-46
2023/06/27 08:08:52;;;;;;;4.30;2.90;;;;;;;25.24;51.57;101412.97;5016115;28;20549;-43
2023/06/27 08:11:21;;;;;;;5.80;3.20;;;;;;;24.59;53.22;101414.69;5016381;28;20468;-42
2023/06/27 08:13:49;;;;;;;3.77;3.40;;;;;;;22.97;60.90;101426.09;5016868;28;20511;-44
2023/06/27 08:16:17;;;;;;;3.30;3.00;;;;;;;22.03;64.09;101431.22;5014520;28;20442;-42
2023/06/27 08:18:46;;;;;;;4.37;3.53;;;;;;;22.08;67.65;101423.13;5009769;28;20464;-48
2023/06/27 08:21:13;;;;;;;3.90;3.60;;;;;;;22.41;72.66;101419.38;5011069;28;20444;-43
2023/06/27 08:23:42;;;;;;;6.33;3.60;;;;;;;22.93;65.29;101425.00;5010941;28;20444;-42
2023/06/27 08:26:14;;;;;;;6.20;3.73;;;;;;;23.18;64.57;101424.34;5011204;28;20432;-44
2023/06/27 08:28:42;;;;;;;3.53;3.33;;;;;;;23.53;65.23;101422.63;5010799;28;20499;-44
2023/06/27 08:31:11;;;;;;;4.23;3.10;;;;;;;23.63;61.72;101425.38;5011126;28;20413;-43
2023/06/27 08:33:39;;;;;;;5.73;2.77;;;;;;;23.12;62.22;101427.00;5011104;28;20469;-47
2023/06/27 08:36:08;;;;;;;3.90;3.00;;;;;;;23.69;61.64;101418.06;5010600;28;20444;-43
2023/06/27 08:38:36;;;;;;;3.53;2.90;;;;;;;23.64;63.52;101418.88;5010869;28;20443;-44
2023/06/27 08:41:04;;;;;;;3.57;3.33;;;;;;;23.02;62.49;101426.97;5010742;28;20475;-44
2023/06/27 08:43:32;;;;;;;3.60;2.83;;;;;;;22.88;63.95;101420.31;5010560;28;20432;-44
2023/06/27 08:46:00;;;;;;;4.27;2.93;;;;;;;22.63;62.86;101425.53;5011365;28;20432;-46
2023/06/27 08:48:28;;;;;;;6.30;2.87;;;;;;;22.60;63.77;101423.34;5010709;28;20483;-42
2023/06/27 08:50:57;;;;;;;8.83;3.10;;;;;;;22.60;63.52;101426.88;5010845;28;20519;-48
2023/06/27 08:53:29;;;;;;;3.63;2.73;;;;;;;22.54;62.19;101406.19;5010980;28;20891;-46
2023/06/27 08:56:01;;;;;;;4.23;3.47;;;;;;;22.28;67.83;101427.97;5011028;28;20836;-46
2023/06/27 08:58:35;;;;;;;3.50;3.20;;;;;;;22.25;69.39;101415.69;5010909;28;20428;-43
2023/06/27 09:01:03;;;;;;;6.20;4.20;;;;;;;22.30;68.85;101432.06;5010865;28;20452;-45
2023/06/27 09:03:32;;;;;;;4.60;2.73;;;;;;;22.48;68.04;101415.38;5010794;28;20468;-46
2023/06/27 09:06:02;;;;;;;8.23;3.40;;;;;;;22.52;66.26;101413.75;5010713;28;20435;-43
2023/06/27 09:08:32;;;;;;;2.93;2.60;;;;;;;22.32;74.45;101427.16;5010095;28;20524;-45
2023/06/27 09:11:01;;;;;;;5.00;2.83;;;;;;;22.30;74.97;101415.75;5011152;28;20448;-44
2023/06/27 09:13:29;;;;;;;5.77;3.80;;;;;;;22.75;73.09;101422.69;5010578;28;20516;-45
2023/06/27 09:15:56;;;;;;;4.10;3.20;;;;;;;23.02;69.66;101426.97;5010950;28;20812;-47
2023/06/27 09:18:24;;;;;;;3.30;3.00;;;;;;;23.01;63.92;101425.31;5010554;28;20504;-46
2023/06/27 09:20:56;;;;;;;3.90;3.47;;;;;;;22.76;66.81;101421.59;5010327;28;20862;-47
2023/06/27 09:23:24;;;;;;;4.90;3.23;;;;;;;22.75;69.96;101418.06;5010721;28;20823;-43
2023/06/27 09:28:49;;;;;;;3.93;3.63;;;;;;;22.21;75.73;101430.06;5084896;27;20536;-49
2023/06/27 09:31:19;;;;;;;6.53;3.90;;;;;;;22.10;81.97;101429.16;5027303;28;20435;-41
2023/06/27 09:33:48;;;;;;;4.40;3.50;;;;;;;21.33;98.55;101423.00;5028279;28;20435;-45
2023/06/27 09:36:36;;;;;;;4.43;4.00;;;;;;;20.24;100.00;101436.16;5028708;28;20443;-43
2023/06/27 09:39:09;;;;;;;3.57;3.27;;;;;;;19.81;100.00;101447.50;5027740;28;20610;-43
2023/06/27 09:41:41;;;;;;;7.77;3.20;;;;;;;19.43;100.00;101441.00;5028057;28;20428;-41
2023/06/27 09:44:18;;;;;;;6.83;3.73;;;;;;;19.40;100.00;101430.66;5028492;28;20462;-41
2023/06/27 09:46:47;;;;;;;6.17;3.60;;;;;;;19.78;100.00;101429.03;5028169;28;20486;-45
2023/06/27 09:49:16;;;;;;;5.90;4.00;;;;;;;19.61;100.00;101446.28;5027388;28;20460;-43
2023/06/27 09:51:46;;;;;;;4.60;3.90;;;;;;;19.84;100.00;101440.78;5027567;28;21081;-44
2023/06/27 09:54:13;;;;;;;4.07;3.67;;;;;;;19.76;100.00;101460.94;5027878;28;20817;-41
2023/06/27 09:56:49;;;;;;;7.00;3.97;;;;;;;19.79;100.00;101449.66;5027973;28;20428;-41
2023/06/27 09:59:20;;;;;;;4.07;3.20;;;;;;;20.30;100.00;101445.22;5027565;28;20459;-41
2023/06/27 10:01:53;;;;;;;3.47;3.17;;;;;;;20.50;100.00;101444.75;5027499;28;20424;-42
2023/06/27 10:04:21;;;;;;;3.67;3.37;;;;;;;20.92;100.00;101440.56;5027839;28;20813;-42
2023/06/27 10:06:53;;;;;;;5.07;3.77;;;;;;;21.02;100.00;101457.00;5027164;28;20436;-45
2023/06/27 10:09:21;;;;;;;3.90;3.60;;;;;;;20.78;96.87;101429.25;5026736;28;20464;-42
2023/06/27 10:11:50;;;;;;;6.70;3.70;;;;;;;20.79;100.00;101440.88;5027253;28;20941;-42
2023/06/27 10:14:20;;;;;;;3.50;3.20;;;;;;;20.89;100.00;101447.31;5027623;28;20779;-45
2023/06/27 10:16:50;;;;;;;3.40;3.13;;;;;;;21.24;99.00;101448.94;5027684;28;20786;-41
2023/06/27 10:19:18;;;;;;;3.80;3.50;;;;;;;22.14;93.41;101451.97;5027057;28;20460;-43
2023/06/27 10:21:47;;;;;;;4.53;4.13;;;;;;;22.43;86.27;101452.56;5041630;28;20819;-41
2023/06/27 10:24:15;;;;;;;4.70;4.30;;;;;;;21.97;100.00;101464.84;5039458;28;20444;-47
2023/06/27 10:26:51;;;;;;;5.97;4.57;;;;;;;21.54;100.00;101457.47;5047090;28;20526;-46
2023/06/27 10:29:32;;;;;;;4.33;4.10;;;;;;;21.47;100.00;101463.09;5046744;28;20470;-42
2023/06/27 10:32:00;;;;;;;12.13;4.50;;;;;;;21.93;100.00;101458.28;5046657;28;20763;-43
2023/06/27 10:34:40;;;;;;;5.47;4.67;;;;;;;22.51;100.00;101450.19;5047159;28;20438;-40
2023/06/27 10:37:10;;;;;;;6.83;5.10;;;;;;;22.74;100.00;101450.94;5047063;28;20462;-42
2023/06/27 10:39:40;;;;;;;5.00;4.47;;;;;;;22.89;99.15;101437.47;5035918;28;20542;-45
2023/06/27 10:42:26;;;;;;;5.47;4.20;;;;;;;22.84;85.54;101435.53;5033280;28;20853;-42
2023/06/27 10:45:02;;;;;;;8.67;3.67;;;;;;;22.91;94.04;101433.38;5033424;28;20436;-42
2023/06/27 10:47:34;;;;;;;5.27;4.57;;;;;;;23.24;93.55;101436.88;5033608;28;20542;-40
2023/06/27 10:50:07;;;;;;;12.53;4.73;;;;;;;23.62;92.52;101431.91;5032962;28;20495;-43
2023/06/27 10:52:35;;;;;;;6.43;4.13;;;;;;;23.62;85.97;101423.75;5033088;28;20428;-43
2023/06/27 10:55:22;;;;;;;4.63;4.13;;;;;;;22.93;89.15;101430.44;5033350;28;20435;-45
2023/06/27 10:57:57;;;;;;;5.13;4.60;;;;;;;22.51;91.28;101431.16;5033441;28;20872;-40
2023/06/27 11:00:29;;;;;;;6.60;3.90;;;;;;;22.05;89.59;101435.31;5032646;28;20466;-41
2023/06/27 11:02:57;;;;;;;6.97;4.30;;;;;;;21.53;87.25;101432.22;5032049;28;20917;-43
2023/06/27 11:05:41;;;;;;;4.80;4.40;;;;;;;21.65;88.65;101437.56;5033310;28;20432;-43
2023/06/27 11:08:11;;;;;;;7.23;4.67;;;;;;;21.97;84.75;101424.94;5032638;28;21003;-41
2023/06/27 11:10:50;;;;;;;4.40;4.00;;;;;;;21.95;86.40;101424.34;5032626;28;20471;-41
2023/06/27 11:13:21;;;;;;;8.00;4.27;;;;;;;22.03;81.57;101414.94;5033017;28;20431;-41
2023/06/27 11:15:52;;;;;;;5.63;4.47;;;;;;;22.21;79.31;101422.72;5033270;28;20509;-42
2023/06/27 11:18:21;;;;;;;6.90;3.67;;;;;;;22.75;75.67;101420.78;5032557;28;20506;-48
2023/06/27 11:20:50;;;;;;;7.30;3.97;;;;;;;22.66;76.99;101416.09;5032557;28;20862;-48
2023/06/27 11:23:19;;;;;;;4.57;3.97;;;;;;;22.51;75.40;101406.69;5032831;28;20447;-43
2023/06/27 11:25:47;;;;;;;7.43;4.33;;;;;;;22.46;74.34;101412.06;5032588;28;20490;-41
2023/06/27 11:28:18;;;;;;;4.27;3.93;;;;;;;22.43;81.85;101423.47;5032649;28;20510;-44
2023/06/27 11:30:46;;;;;;;3.93;3.50;;;;;;;22.42;73.51;101421.84;5031995;28;20468;-41